createdAt,value
2022-11-21T00:00:52.226Z,20.21
2022-11-21T00:03:23.744Z,20.09
2022-11-21T00:05:54.710Z,20.28
2022-11-21T00:08:25.994Z,20.45
2022-11-21T00:10:56.958Z,20.43
2022-11-21T00:13:27.932Z,20.12
2022-11-21T00:15:58.785Z,19.72
2022-11-21T00:18:29.519Z,19.75
2022-11-21T00:21:00.341Z,20.03
2022-11-21T00:23:31.315Z,19.87
2022-11-21T00:26:06.815Z,20.05
2022-11-21T00:28:38.146Z,20.00
2022-11-21T00:31:09.663Z,19.75
2022-11-21T00:33:40.657Z,18.81
2022-11-21T00:36:12.342Z,18.22
2022-11-21T00:38:42.483Z,18.22
2022-11-21T00:41:13.184Z,18.18
2022-11-21T00:43:44.146Z,17.75
2022-11-21T00:46:15.114Z,17.52
2022-11-21T00:48:45.927Z,17.42
2022-11-21T00:51:16.858Z,17.40
2022-11-21T00:53:47.587Z,17.45
2022-11-21T00:56:18.360Z,17.84
2022-11-21T00:58:49.327Z,17.71
2022-11-21T01:01:20.350Z,17.77
2022-11-21T01:03:51.618Z,17.83
2022-11-21T01:06:22.355Z,18.17
2022-11-21T01:08:54.358Z,18.47
2022-11-21T01:11:25.277Z,18.64
2022-11-21T01:13:56.616Z,18.14
2022-11-21T01:16:29.734Z,18.28
2022-11-21T01:19:00.827Z,18.51
2022-11-21T01:21:33.396Z,18.42
2022-11-21T01:24:04.819Z,18.56
2022-11-21T01:26:35.757Z,18.71
2022-11-21T01:29:07.219Z,18.69
2022-11-21T01:31:38.211Z,18.77
2022-11-21T01:34:09.214Z,18.71
2022-11-21T01:36:40.300Z,18.82
2022-11-21T01:39:12.799Z,18.93
2022-11-21T01:41:46.183Z,19.01
2022-11-21T01:44:47.853Z,19.05
2022-11-21T01:47:19.273Z,19.06
2022-11-21T01:49:50.506Z,18.97
2022-11-21T01:52:26.262Z,18.56
2022-11-21T01:55:04.262Z,18.55
2022-11-21T01:57:43.155Z,18.74
2022-11-21T02:00:20.347Z,18.55
2022-11-21T02:02:57.671Z,18.88
2022-11-21T02:05:31.709Z,19.19
2022-11-21T02:08:22.381Z,19.42
2022-11-21T02:11:34.741Z,19.28
2022-11-21T02:14:06.118Z,19.43
2022-11-21T02:16:37.325Z,19.54
2022-11-21T02:19:11.232Z,19.36
2022-11-21T02:21:47.505Z,19.46
2022-11-21T02:24:21.488Z,19.12
2022-11-21T02:26:52.831Z,19.05
2022-11-21T02:29:23.742Z,19.23
2022-11-21T02:31:55.165Z,19.11
2022-11-21T02:34:26.535Z,19.01
2022-11-21T02:36:57.624Z,19.31
2022-11-21T02:39:32.426Z,18.78
2022-11-21T02:42:32.475Z,18.91
2022-11-21T02:45:25.835Z,18.64
2022-11-21T02:48:03.603Z,18.71
2022-11-21T02:50:38.167Z,18.48
2022-11-21T02:53:11.288Z,18.51
2022-11-21T02:55:42.234Z,18.62
2022-11-21T02:58:13.986Z,18.42
2022-11-21T03:00:45.448Z,18.17
2022-11-21T03:03:16.323Z,18.24
2022-11-21T03:05:47.289Z,18.12
2022-11-21T03:08:18.523Z,17.87
2022-11-21T03:10:49.915Z,17.98
2022-11-21T03:13:21.399Z,17.93
2022-11-21T03:15:52.446Z,17.87
2022-11-21T03:18:23.255Z,17.84
2022-11-21T03:20:55.733Z,18.02
2022-11-21T03:23:26.874Z,17.97
2022-11-21T03:25:57.882Z,17.72
2022-11-21T03:28:28.765Z,17.77
2022-11-21T03:30:59.561Z,17.74
2022-11-21T03:33:30.802Z,17.85
2022-11-21T03:36:01.760Z,17.76
2022-11-21T03:38:32.690Z,17.93
2022-11-21T03:41:27.264Z,17.79
2022-11-21T03:44:02.911Z,17.68
2022-11-21T03:46:36.599Z,17.84
2022-11-21T03:49:08.621Z,18.00
2022-11-21T03:51:39.865Z,17.96
2022-11-21T03:54:12.811Z,17.80
2022-11-21T03:56:43.611Z,17.87
2022-11-21T03:59:14.610Z,17.94
2022-11-21T04:01:45.921Z,17.88
2022-11-21T04:04:16.758Z,18.12
2022-11-21T04:06:47.508Z,18.16
2022-11-21T04:09:18.391Z,18.24
2022-11-21T04:11:49.475Z,18.35
2022-11-21T04:14:20.400Z,18.44
2022-11-21T04:16:51.397Z,18.40
2022-11-21T04:19:22.390Z,18.43
2022-11-21T04:21:53.336Z,18.54
2022-11-21T04:24:24.324Z,18.60
2022-11-21T04:26:57.280Z,18.72
2022-11-21T04:29:28.062Z,18.79
2022-11-21T04:31:58.787Z,18.69
2022-11-21T04:34:29.835Z,18.66
2022-11-21T04:37:02.575Z,18.68
2022-11-21T04:39:35.342Z,18.81
2022-11-21T04:42:06.461Z,18.93
2022-11-21T04:44:37.954Z,18.70
2022-11-21T04:47:08.755Z,18.73
2022-11-21T04:49:39.519Z,18.90
2022-11-21T04:52:10.665Z,18.81
2022-11-21T04:54:41.699Z,18.70
2022-11-21T04:57:12.993Z,18.84
2022-11-21T04:59:44.072Z,18.66
2022-11-21T05:02:15.381Z,18.68
2022-11-21T05:04:46.632Z,18.68
2022-11-21T05:07:17.986Z,18.82
2022-11-21T05:09:49.015Z,18.83
2022-11-21T05:12:37.939Z,18.62
2022-11-21T05:15:12.046Z,18.58
2022-11-21T05:17:43.028Z,18.61
2022-11-21T05:20:14.876Z,18.77
2022-11-21T05:22:46.870Z,18.85
2022-11-21T05:25:18.135Z,18.67
2022-11-21T05:27:48.930Z,18.67
2022-11-21T05:30:19.893Z,18.62
2022-11-21T05:32:50.686Z,18.86
2022-11-21T05:35:21.754Z,18.57
2022-11-21T05:37:58.904Z,18.59
2022-11-21T05:40:29.738Z,18.58
2022-11-21T05:43:18.796Z,18.68
2022-11-21T05:45:53.800Z,18.58
2022-11-21T05:48:24.676Z,18.68
2022-11-21T05:50:55.690Z,18.58
2022-11-21T05:53:26.475Z,18.77
2022-11-21T05:55:57.210Z,18.71
2022-11-21T05:58:28.194Z,18.73
2022-11-21T06:01:00.456Z,18.74
2022-11-21T06:03:34.419Z,18.67
2022-11-21T06:06:11.074Z,18.79
2022-11-21T06:08:47.330Z,18.86
2022-11-21T06:11:18.777Z,18.74
2022-11-21T06:13:49.823Z,18.88
2022-11-21T06:16:22.115Z,18.78
2022-11-21T06:18:58.449Z,18.70
2022-11-21T06:21:31.143Z,18.75
2022-11-21T06:24:02.484Z,18.75
2022-11-21T06:26:33.551Z,18.65
2022-11-21T06:29:04.869Z,18.76
2022-11-21T06:31:35.579Z,18.59
2022-11-21T06:34:06.375Z,18.64
2022-11-21T06:36:37.606Z,18.70
2022-11-21T06:39:08.618Z,18.57
2022-11-21T06:41:39.913Z,18.59
2022-11-21T06:44:11.197Z,18.55
2022-11-21T06:46:42.731Z,18.51
2022-11-21T06:49:15.908Z,18.46
2022-11-21T06:51:46.741Z,18.28
2022-11-21T06:54:18.047Z,18.35
2022-11-21T06:56:49.066Z,18.26
2022-11-21T06:59:20.054Z,18.19
2022-11-21T07:01:51.371Z,18.32
2022-11-21T07:04:22.848Z,18.28
2022-11-21T07:06:53.724Z,18.20
2022-11-21T07:09:33.730Z,18.17
2022-11-21T07:12:24.458Z,18.13
2022-11-21T07:14:55.412Z,18.20
2022-11-21T07:17:26.537Z,18.16
2022-11-21T07:19:57.326Z,18.14
2022-11-21T07:22:28.651Z,18.20
2022-11-21T07:24:59.426Z,18.22
2022-11-21T07:27:30.241Z,18.10
2022-11-21T07:30:01.310Z,17.97
2022-11-21T07:32:33.631Z,18.05
2022-11-21T07:35:04.684Z,17.96
2022-11-21T07:37:39.174Z,18.01
2022-11-21T07:40:10.338Z,17.91
2022-11-21T07:42:41.197Z,17.93
2022-11-21T07:45:12.810Z,17.90
2022-11-21T07:47:44.461Z,17.77
2022-11-21T07:50:16.097Z,17.79
2022-11-21T07:52:46.885Z,17.87
2022-11-21T07:55:17.796Z,17.86
2022-11-21T07:57:48.748Z,17.87
2022-11-21T08:00:20.027Z,17.92
2022-11-21T08:02:50.966Z,18.12
2022-11-21T08:05:22.277Z,18.00
2022-11-21T08:07:53.657Z,17.93
2022-11-21T08:10:25.178Z,17.82
2022-11-21T08:12:56.039Z,17.78
2022-11-21T08:15:26.903Z,17.63
2022-11-21T08:17:57.794Z,17.59
2022-11-21T08:20:28.752Z,17.69
2022-11-21T08:22:59.682Z,17.54
2022-11-21T08:25:30.617Z,17.45
2022-11-21T08:28:02.041Z,17.41
2022-11-21T08:30:33.684Z,17.42
2022-11-21T08:33:04.172Z,17.57
2022-11-21T08:35:35.189Z,17.46
2022-11-21T08:38:06.672Z,17.52
2022-11-21T08:40:38.179Z,17.68
2022-11-21T08:43:11.387Z,17.58
2022-11-21T08:45:42.682Z,17.59
2022-11-21T08:48:13.870Z,17.51
2022-11-21T08:50:44.816Z,17.56
2022-11-21T08:53:15.700Z,17.59
2022-11-21T08:55:46.678Z,17.52
2022-11-21T08:58:17.462Z,17.55
2022-11-21T09:00:48.433Z,17.51
2022-11-21T09:03:23.570Z,17.25
2022-11-21T09:05:59.172Z,17.33
2022-11-21T09:08:32.203Z,17.45
2022-11-21T09:11:07.784Z,17.35
2022-11-21T09:13:39.319Z,17.32
2022-11-21T09:16:31.306Z,17.28
2022-11-21T09:19:01.445Z,17.27
2022-11-21T09:21:32.452Z,17.39
2022-11-21T09:24:05.031Z,17.24
2022-11-21T09:26:35.966Z,17.33
2022-11-21T09:29:07.148Z,17.32
2022-11-21T09:31:38.148Z,17.39
2022-11-21T09:34:09.295Z,17.23
2022-11-21T09:36:40.340Z,17.07
2022-11-21T09:39:11.288Z,17.02
2022-11-21T09:41:54.097Z,17.10
2022-11-21T09:45:00.287Z,17.25
2022-11-21T09:47:35.289Z,17.39
2022-11-21T09:50:15.304Z,17.28
2022-11-21T09:53:01.392Z,17.29
2022-11-21T09:55:37.895Z,17.26
2022-11-21T09:58:31.731Z,17.15
2022-11-21T10:01:02.894Z,17.13
2022-11-21T10:03:47.438Z,17.19
2022-11-21T10:06:34.271Z,17.12
2022-11-21T10:09:05.221Z,17.02
2022-11-21T10:12:16.820Z,17.06
2022-11-21T10:14:57.017Z,16.98
2022-11-21T10:17:39.925Z,17.01
2022-11-21T10:20:31.995Z,17.11
2022-11-21T10:23:21.111Z,17.09
2022-11-21T10:26:32.091Z,17.10
2022-11-21T10:29:18.612Z,17.16
2022-11-21T10:31:49.576Z,17.06
2022-11-21T10:34:32.204Z,16.94
2022-11-21T10:37:17.771Z,16.95
2022-11-21T10:39:57.496Z,16.98
2022-11-21T10:42:35.006Z,16.93
2022-11-21T10:45:18.320Z,16.85
2022-11-21T10:47:55.565Z,16.76
2022-11-21T10:50:27.825Z,16.87
2022-11-21T10:53:28.957Z,16.93
2022-11-21T10:56:14.901Z,16.83
2022-11-21T10:58:50.721Z,16.77
2022-11-21T11:01:41.732Z,16.70
2022-11-21T11:04:28.803Z,16.75
2022-11-21T11:07:26.265Z,16.73
2022-11-21T11:10:27.708Z,16.64
2022-11-21T11:16:18.787Z,16.56
2022-11-21T11:19:01.135Z,16.50
2022-11-21T11:21:39.381Z,16.57
2022-11-21T11:24:13.254Z,16.61
2022-11-21T11:26:51.755Z,16.62
2022-11-21T11:29:33.841Z,16.58
2022-11-21T11:32:23.458Z,16.67
2022-11-21T11:35:07.960Z,16.79
2022-11-21T11:37:49.061Z,16.75
2022-11-21T11:40:35.271Z,16.73
2022-11-21T11:43:34.209Z,16.67
2022-11-21T11:46:35.817Z,16.58
2022-11-21T11:49:20.451Z,16.61
2022-11-21T11:52:01.453Z,16.53
2022-11-21T11:54:43.907Z,16.42
2022-11-21T11:57:15.188Z,16.30
2022-11-21T11:59:53.255Z,16.36
2022-11-21T12:02:47.051Z,16.39
2022-11-21T12:05:32.302Z,16.36
2022-11-21T12:08:40.160Z,16.35
2022-11-21T12:11:24.784Z,16.24
2022-11-21T12:13:58.977Z,16.11
2022-11-21T12:16:31.350Z,16.04
2022-11-21T12:19:16.223Z,16.08
2022-11-21T12:21:46.910Z,16.07
2022-11-21T12:24:22.413Z,15.94
2022-11-21T12:27:00.722Z,15.84
2022-11-21T12:29:56.028Z,16.05
2022-11-21T12:32:44.980Z,15.99
2022-11-21T12:35:37.025Z,15.97
2022-11-21T12:38:07.128Z,16.03
2022-11-21T12:40:44.152Z,16.00
2022-11-21T12:43:50.823Z,15.88
2022-11-21T12:46:34.975Z,15.72
2022-11-21T12:49:30.266Z,15.74
2022-11-21T12:52:28.524Z,15.76
2022-11-21T12:55:17.288Z,15.58
2022-11-21T12:58:12.335Z,15.52
2022-11-21T13:01:05.307Z,15.41
2022-11-21T13:03:48.020Z,15.27
2022-11-21T13:06:24.510Z,15.23
2022-11-21T13:08:57.497Z,15.14
2022-11-21T13:11:49.246Z,15.37
2022-11-21T13:14:56.740Z,15.38
2022-11-21T13:17:28.127Z,15.25
2022-11-21T13:20:19.996Z,15.27
2022-11-21T13:22:52.681Z,15.19
2022-11-21T13:25:41.917Z,15.15
2022-11-21T13:28:21.748Z,15.12
2022-11-21T13:30:56.622Z,15.02
2022-11-21T13:33:42.814Z,15.01
2022-11-21T13:36:36.585Z,15.09
2022-11-21T13:39:07.565Z,15.12
2022-11-21T13:41:56.893Z,15.16
2022-11-21T13:44:33.800Z,15.18
2022-11-21T13:47:11.902Z,15.18
2022-11-21T13:50:11.464Z,15.08
2022-11-21T13:53:09.131Z,15.33
2022-11-21T13:56:20.527Z,15.53
2022-11-21T13:58:57.334Z,15.48
2022-11-21T14:01:45.875Z,15.28
2022-11-21T14:04:38.994Z,15.05
2022-11-21T14:07:28.441Z,14.88
2022-11-21T14:10:01.934Z,14.83
2022-11-21T14:12:42.848Z,14.79
2022-11-21T14:15:35.277Z,14.66
2022-11-21T14:18:07.321Z,14.66
2022-11-21T14:21:02.155Z,14.66
2022-11-21T14:23:37.153Z,14.62
2022-11-21T14:26:21.458Z,14.66
2022-11-21T14:28:52.272Z,14.66
2022-11-21T14:31:23.018Z,14.72
2022-11-21T14:33:59.847Z,14.80
2022-11-21T14:36:32.649Z,14.75
2022-11-21T14:39:35.568Z,14.70
2022-11-21T14:42:01.351Z,14.47
2022-11-21T14:44:32.460Z,14.41
2022-11-21T14:47:26.227Z,14.40
2022-11-21T14:50:03.764Z,14.36
2022-11-21T14:52:37.996Z,14.32
2022-11-21T14:55:30.213Z,14.27
2022-11-21T14:58:03.506Z,14.28
2022-11-21T15:03:25.841Z,14.35
2022-11-21T15:06:08.690Z,14.34
2022-11-21T15:09:18.463Z,14.23
2022-11-21T15:11:42.292Z,14.42
2022-11-21T15:14:37.800Z,14.38
2022-11-21T15:17:12.830Z,14.28
2022-11-21T15:19:44.933Z,14.22
2022-11-21T15:22:30.793Z,14.31
2022-11-21T15:25:20.019Z,14.26
2022-11-21T15:28:10.758Z,14.14
2022-11-21T15:30:41.790Z,14.01
2022-11-21T15:33:21.479Z,14.29
2022-11-21T15:35:57.607Z,14.25
2022-11-21T15:38:48.602Z,14.21
2022-11-21T15:41:19.502Z,14.16
2022-11-21T15:43:56.380Z,13.99
2022-11-21T15:46:43.837Z,13.92
2022-11-21T15:52:12.362Z,13.94
2022-11-21T15:54:43.108Z,13.90
2022-11-21T15:57:16.846Z,14.01
2022-11-21T15:59:49.517Z,14.01
2022-11-21T16:02:20.643Z,14.11
2022-11-21T16:04:51.704Z,14.02
2022-11-21T16:07:22.552Z,14.13
2022-11-21T16:09:53.769Z,13.98
2022-11-21T16:12:24.587Z,13.85
2022-11-21T16:14:55.470Z,13.88
2022-11-21T16:17:26.577Z,13.94
2022-11-21T16:19:58.415Z,14.04
2022-11-21T16:22:29.700Z,13.98
2022-11-21T16:25:01.077Z,13.93
2022-11-21T16:27:36.428Z,13.95
2022-11-21T16:30:08.305Z,14.07
2022-11-21T16:32:39.209Z,14.16
2022-11-21T16:35:10.658Z,14.19
2022-11-21T16:37:41.838Z,14.28
2022-11-21T16:40:13.104Z,14.27
2022-11-21T16:42:43.767Z,14.33
2022-11-21T16:45:14.599Z,14.36
2022-11-21T16:47:48.717Z,14.42
2022-11-21T16:50:20.256Z,14.46
2022-11-21T16:52:51.173Z,14.47
2022-11-21T16:55:21.923Z,14.57
2022-11-21T16:57:52.789Z,14.53
2022-11-21T17:00:25.807Z,14.57
2022-11-21T17:02:57.313Z,14.57
2022-11-21T17:05:28.557Z,14.63
2022-11-21T17:07:59.583Z,14.63
2022-11-21T17:10:34.021Z,14.58
2022-11-21T17:13:05.517Z,14.55
2022-11-21T17:15:36.376Z,14.57
2022-11-21T17:18:07.126Z,14.66
2022-11-21T17:20:38.438Z,14.60
2022-11-21T17:23:09.486Z,14.59
2022-11-21T17:25:40.221Z,14.60
2022-11-21T17:28:11.128Z,14.58
2022-11-21T17:30:45.557Z,14.55
2022-11-21T17:33:16.273Z,14.63
2022-11-21T17:35:47.141Z,14.72
2022-11-21T17:38:18.100Z,14.74
2022-11-21T17:40:49.132Z,14.78
2022-11-21T17:43:20.175Z,14.90
2022-11-21T17:45:51.941Z,15.00
2022-11-21T17:48:22.882Z,15.03
2022-11-21T17:51:06.137Z,14.93
2022-11-21T17:53:38.809Z,15.11
2022-11-21T17:56:11.614Z,15.16
2022-11-21T17:58:42.905Z,15.23
2022-11-21T18:01:20.453Z,15.42
2022-11-21T18:04:02.360Z,15.53
2022-11-21T18:06:38.482Z,15.47
2022-11-21T18:09:11.800Z,15.57
2022-11-21T18:11:43.249Z,15.82
2022-11-21T18:14:15.539Z,15.57
2022-11-21T18:16:52.842Z,15.97
2022-11-21T18:19:24.517Z,15.93
2022-11-21T18:21:55.779Z,16.15
2022-11-21T18:24:26.895Z,16.18
2022-11-21T18:26:58.157Z,16.45
2022-11-21T18:29:36.322Z,16.54
2022-11-21T18:32:08.811Z,16.83
2022-11-21T18:34:39.045Z,16.71
2022-11-21T18:37:10.090Z,16.82
2022-11-21T18:39:40.821Z,16.99
2022-11-21T18:42:11.566Z,16.97
2022-11-21T18:44:42.885Z,17.34
2022-11-21T18:47:20.568Z,17.77
2022-11-21T18:49:52.014Z,17.94
2022-11-21T18:52:22.872Z,17.79
2022-11-21T18:54:53.718Z,17.92
2022-11-21T18:57:24.503Z,17.86
2022-11-21T18:59:55.414Z,17.62
2022-11-21T19:02:26.466Z,17.76
2022-11-21T19:04:57.271Z,17.93
2022-11-21T19:07:28.341Z,17.86
2022-11-21T19:10:20.702Z,18.12
2022-11-21T19:12:50.063Z,18.48
2022-11-21T19:15:20.786Z,18.40
2022-11-21T19:17:51.730Z,18.62
2022-11-21T19:20:22.736Z,18.89
2022-11-21T19:22:54.952Z,19.32
2022-11-21T19:25:25.333Z,19.44
2022-11-21T19:27:56.882Z,18.86
2022-11-21T19:30:28.545Z,18.75
2022-11-21T19:33:00.778Z,18.71
2022-11-21T19:35:31.475Z,18.78
2022-11-21T19:38:02.746Z,18.91
2022-11-21T19:40:53.469Z,19.19
2022-11-21T19:43:24.704Z,19.45
2022-11-21T19:45:58.190Z,19.67
2022-11-21T19:48:29.389Z,20.05
2022-11-21T19:51:00.975Z,20.09
2022-11-21T19:53:36.114Z,19.61
2022-11-21T19:56:18.031Z,20.62
2022-11-21T19:58:50.046Z,20.52
2022-11-21T20:01:24.644Z,20.54
2022-11-21T20:03:57.777Z,20.63
2022-11-21T20:06:38.823Z,20.98
2022-11-21T20:09:12.537Z,21.46
2022-11-21T20:11:45.822Z,21.22
2022-11-21T20:14:21.876Z,20.81
2022-11-21T20:16:55.163Z,20.40
2022-11-21T20:19:28.246Z,20.52
2022-11-21T20:21:59.181Z,20.90
2022-11-21T20:24:30.567Z,21.63
2022-11-21T20:27:01.441Z,21.66
2022-11-21T20:29:32.321Z,21.99
2022-11-21T20:32:03.918Z,21.88
2022-11-21T20:34:36.274Z,22.48
2022-11-21T20:37:07.200Z,22.92
2022-11-21T20:39:37.954Z,23.11
2022-11-21T20:42:09.712Z,23.00
2022-11-21T20:47:30.844Z,22.97
2022-11-21T20:50:01.544Z,23.42
2022-11-21T20:55:24.116Z,23.30
2022-11-21T20:57:55.487Z,23.33
2022-11-21T21:00:26.476Z,23.03
2022-11-21T21:02:57.499Z,23.61
2022-11-21T21:05:28.388Z,23.76
2022-11-21T21:07:59.170Z,22.75
2022-11-21T21:10:45.972Z,23.46
2022-11-21T21:13:21.109Z,24.23
2022-11-21T21:15:52.064Z,23.58
2022-11-21T21:18:23.440Z,24.49
2022-11-21T21:21:15.336Z,24.25
2022-11-21T21:23:55.747Z,24.96
2022-11-21T21:26:37.299Z,25.94
2022-11-21T21:29:14.541Z,24.54
2022-11-21T21:31:50.563Z,25.04
2022-11-21T21:34:24.027Z,24.86
2022-11-21T21:36:54.834Z,23.84
2022-11-21T21:39:27.484Z,24.00
2022-11-21T21:41:58.892Z,23.39
2022-11-21T21:44:33.223Z,23.67
2022-11-21T21:47:04.784Z,24.25
2022-11-21T21:49:35.506Z,25.37
2022-11-21T21:52:06.573Z,24.83
2022-11-21T21:54:37.284Z,24.71
2022-11-21T21:57:08.148Z,25.43
2022-11-21T21:59:39.108Z,24.60
2022-11-21T22:02:12.339Z,25.34
2022-11-21T22:04:45.917Z,24.89
2022-11-21T22:07:18.815Z,25.96
2022-11-21T22:09:49.955Z,26.34
2022-11-21T22:12:20.813Z,26.05
2022-11-21T22:14:51.650Z,25.71
2022-11-21T22:17:22.449Z,25.56
2022-11-21T22:19:53.456Z,24.61
2022-11-21T22:22:24.548Z,25.45
2022-11-21T22:24:55.512Z,25.78
2022-11-21T22:27:26.555Z,25.45
2022-11-21T22:29:57.262Z,25.02
2022-11-21T22:32:28.198Z,24.36
2022-11-21T22:35:02.541Z,26.19
2022-11-21T22:37:33.302Z,26.16
2022-11-21T22:40:04.033Z,26.16
2022-11-21T22:42:35.001Z,25.14
2022-11-21T22:45:06.106Z,26.05
2022-11-21T22:47:37.009Z,26.91
2022-11-21T22:50:09.385Z,26.93
2022-11-21T22:52:40.228Z,26.37
2022-11-21T22:55:11.433Z,25.69
2022-11-21T22:57:41.843Z,27.20
2022-11-21T23:00:13.416Z,27.52
2022-11-21T23:02:43.552Z,25.75
2022-11-21T23:05:14.855Z,25.80
2022-11-21T23:07:46.548Z,25.39
2022-11-21T23:10:17.699Z,25.28
2022-11-21T23:12:48.622Z,25.00
2022-11-21T23:15:20.097Z,25.57
2022-11-21T23:17:54.415Z,24.37
2022-11-21T23:20:25.158Z,24.02
2022-11-21T23:22:58.934Z,23.85
2022-11-21T23:25:30.331Z,23.53
2022-11-21T23:28:01.243Z,23.78
2022-11-21T23:30:32.197Z,23.24
2022-11-21T23:33:03.573Z,23.91
2022-11-21T23:35:34.349Z,23.93
2022-11-21T23:38:05.338Z,23.99
2022-11-21T23:40:36.195Z,23.93
2022-11-21T23:43:07.456Z,23.65
2022-11-21T23:45:38.430Z,23.05
2022-11-21T23:48:09.286Z,22.80
2022-11-21T23:50:40.194Z,23.19
2022-11-21T23:53:11.461Z,23.04
2022-11-21T23:55:42.662Z,23.31
2022-11-21T23:58:14.241Z,23.24
